sensor_id;sensor_type;location;lat;lon;timestamp;temperature;humidity
680;DHT22;322;48.846;9.230;2022-11-11T00:00:14;5.50;99.90
680;DHT22;322;48.846;9.230;2022-11-11T00:02:41;5.40;99.90
680;DHT22;322;48.846;9.230;2022-11-11T00:05:08;5.40;99.90
680;DHT22;322;48.846;9.230;2022-11-11T00:07:35;5.50;99.90
680;DHT22;322;48.846;9.230;2022-11-11T00:10:02;5.50;99.90
680;DHT22;322;48.846;9.230;2022-11-11T00:12:29;5.50;99.90
680;DHT22;322;48.846;9.230;2022-11-11T00:14:57;5.50;99.90
680;DHT22;322;48.846;9.230;2022-11-11T00:17:24;5.40;99.90
680;DHT22;322;48.846;9.230;2022-11-11T00:20:09;5.40;99.90
680;DHT22;322;48.846;9.230;2022-11-11T00:22:54;5.40;99.90
680;DHT22;322;48.846;9.230;2022-11-11T00:25:38;5.40;99.90
680;DHT22;322;48.846;9.230;2022-11-11T00:28:05;5.40;99.90
680;DHT22;322;48.846;9.230;2022-11-11T00:30:33;5.30;99.90
680;DHT22;322;48.846;9.230;2022-11-11T00:33:00;5.30;99.90
680;DHT22;322;48.846;9.230;2022-11-11T00:35:27;5.40;99.90
680;DHT22;322;48.846;9.230;2022-11-11T00:38:12;5.40;99.90
680;DHT22;322;48.846;9.230;2022-11-11T00:40:59;5.40;99.90
680;DHT22;322;48.846;9.230;2022-11-11T00:43:27;5.40;99.90
680;DHT22;322;48.846;9.230;2022-11-11T00:45:58;5.40;99.90
680;DHT22;322;48.846;9.230;2022-11-11T00:48:39;5.40;99.90
680;DHT22;322;48.846;9.230;2022-11-11T00:51:23;5.40;99.90
680;DHT22;322;48.846;9.230;2022-11-11T00:53:50;5.40;99.90
680;DHT22;322;48.846;9.230;2022-11-11T00:56:17;5.40;99.90
680;DHT22;322;48.846;9.230;2022-11-11T00:58:44;5.40;99.90
680;DHT22;322;48.846;9.230;2022-11-11T01:01:12;5.40;99.90
680;DHT22;322;48.846;9.230;2022-11-11T01:03:39;5.30;99.90
680;DHT22;322;48.846;9.230;2022-11-11T01:06:05;5.20;99.90
680;DHT22;322;48.846;9.230;2022-11-11T01:08:32;5.30;99.90
680;DHT22;322;48.846;9.230;2022-11-11T01:10:59;5.20;99.90
680;DHT22;322;48.846;9.230;2022-11-11T01:13:28;5.20;99.90
680;DHT22;322;48.846;9.230;2022-11-11T01:15:59;5.10;99.90
680;DHT22;322;48.846;9.230;2022-11-11T01:18:27;5.10;99.90
680;DHT22;322;48.846;9.230;2022-11-11T01:20:58;5.00;99.90
680;DHT22;322;48.846;9.230;2022-11-11T01:23:26;5.00;99.90
680;DHT22;322;48.846;9.230;2022-11-11T01:25:53;5.10;99.90
680;DHT22;322;48.846;9.230;2022-11-11T01:28:20;5.10;99.90
680;DHT22;322;48.846;9.230;2022-11-11T01:30:47;5.30;99.90
680;DHT22;322;48.846;9.230;2022-11-11T01:33:13;5.30;99.90
680;DHT22;322;48.846;9.230;2022-11-11T01:35:41;5.20;99.90
680;DHT22;322;48.846;9.230;2022-11-11T01:38:09;5.20;99.90
680;DHT22;322;48.846;9.230;2022-11-11T01:40:40;5.10;99.90
680;DHT22;322;48.846;9.230;2022-11-11T01:43:17;5.10;99.90
680;DHT22;322;48.846;9.230;2022-11-11T01:45:47;5.00;99.90
680;DHT22;322;48.846;9.230;2022-11-11T01:48:17;5.10;99.90
680;DHT22;322;48.846;9.230;2022-11-11T01:51:05;5.20;99.90
680;DHT22;322;48.846;9.230;2022-11-11T01:53:36;5.20;99.90
680;DHT22;322;48.846;9.230;2022-11-11T01:56:03;5.20;99.90
680;DHT22;322;48.846;9.230;2022-11-11T01:58:30;5.20;99.90
680;DHT22;322;48.846;9.230;2022-11-11T02:00:58;5.20;99.90
680;DHT22;322;48.846;9.230;2022-11-11T02:03:25;5.20;99.90
680;DHT22;322;48.846;9.230;2022-11-11T02:05:53;5.20;99.90
680;DHT22;322;48.846;9.230;2022-11-11T02:08:26;5.10;99.90
680;DHT22;322;48.846;9.230;2022-11-11T02:11:01;5.10;99.90
680;DHT22;322;48.846;9.230;2022-11-11T02:13:29;5.10;99.90
680;DHT22;322;48.846;9.230;2022-11-11T02:16:14;5.20;99.90
680;DHT22;322;48.846;9.230;2022-11-11T02:18:42;5.00;99.90
680;DHT22;322;48.846;9.230;2022-11-11T02:21:12;4.90;99.90
680;DHT22;322;48.846;9.230;2022-11-11T02:23:45;4.80;99.90
680;DHT22;322;48.846;9.230;2022-11-11T02:26:15;4.90;99.90
680;DHT22;322;48.846;9.230;2022-11-11T02:28:43;4.80;99.90
680;DHT22;322;48.846;9.230;2022-11-11T02:31:11;4.80;99.90
680;DHT22;322;48.846;9.230;2022-11-11T02:33:38;4.90;99.90
680;DHT22;322;48.846;9.230;2022-11-11T02:36:05;4.80;99.90
680;DHT22;322;48.846;9.230;2022-11-11T02:38:35;4.80;99.90
680;DHT22;322;48.846;9.230;2022-11-11T02:41:02;4.70;99.90
680;DHT22;322;48.846;9.230;2022-11-11T02:43:48;4.70;99.90
680;DHT22;322;48.846;9.230;2022-11-11T02:46:14;4.70;99.90
680;DHT22;322;48.846;9.230;2022-11-11T02:48:41;4.60;99.90
680;DHT22;322;48.846;9.230;2022-11-11T02:51:08;4.80;99.90
680;DHT22;322;48.846;9.230;2022-11-11T02:53:35;4.80;99.90
680;DHT22;322;48.846;9.230;2022-11-11T02:56:02;4.80;99.90
680;DHT22;322;48.846;9.230;2022-11-11T02:58:29;4.80;99.90
680;DHT22;322;48.846;9.230;2022-11-11T03:00:57;4.80;99.90
680;DHT22;322;48.846;9.230;2022-11-11T03:03:24;4.90;99.90
680;DHT22;322;48.846;9.230;2022-11-11T03:05:50;4.90;99.90
680;DHT22;322;48.846;9.230;2022-11-11T03:08:17;4.80;99.90
680;DHT22;322;48.846;9.230;2022-11-11T03:10:44;4.80;99.90
680;DHT22;322;48.846;9.230;2022-11-11T03:13:11;4.70;99.90
680;DHT22;322;48.846;9.230;2022-11-11T03:15:37;4.70;99.90
680;DHT22;322;48.846;9.230;2022-11-11T03:18:05;4.60;99.90
680;DHT22;322;48.846;9.230;2022-11-11T03:20:31;4.70;99.90
680;DHT22;322;48.846;9.230;2022-11-11T03:23:16;4.70;99.90
680;DHT22;322;48.846;9.230;2022-11-11T03:25:44;4.70;99.90
680;DHT22;322;48.846;9.230;2022-11-11T03:28:13;4.70;99.90
680;DHT22;322;48.846;9.230;2022-11-11T03:30:41;4.60;99.90
680;DHT22;322;48.846;9.230;2022-11-11T03:33:10;4.70;99.90
680;DHT22;322;48.846;9.230;2022-11-11T03:35:38;4.60;99.90
680;DHT22;322;48.846;9.230;2022-11-11T03:38:06;4.70;99.90
680;DHT22;322;48.846;9.230;2022-11-11T03:40:48;4.70;99.90
680;DHT22;322;48.846;9.230;2022-11-11T03:43:17;4.80;99.90
680;DHT22;322;48.846;9.230;2022-11-11T03:45:45;4.80;99.90
680;DHT22;322;48.846;9.230;2022-11-11T03:48:13;4.80;99.90
680;DHT22;322;48.846;9.230;2022-11-11T03:50:40;4.90;99.90
680;DHT22;322;48.846;9.230;2022-11-11T03:53:07;4.90;99.90
680;DHT22;322;48.846;9.230;2022-11-11T03:55:34;4.90;99.90
680;DHT22;322;48.846;9.230;2022-11-11T03:58:01;5.00;99.90
680;DHT22;322;48.846;9.230;2022-11-11T04:00:28;4.90;99.90
680;DHT22;322;48.846;9.230;2022-11-11T04:03:00;4.90;99.90
680;DHT22;322;48.846;9.230;2022-11-11T04:05:46;4.80;99.90
680;DHT22;322;48.846;9.230;2022-11-11T04:08:30;4.60;99.90
680;DHT22;322;48.846;9.230;2022-11-11T04:11:24;4.50;99.90
680;DHT22;322;48.846;9.230;2022-11-11T04:13:53;4.50;99.90
680;DHT22;322;48.846;9.230;2022-11-11T04:16:38;4.60;99.90
680;DHT22;322;48.846;9.230;2022-11-11T04:19:05;4.80;99.90
680;DHT22;322;48.846;9.230;2022-11-11T04:21:51;4.80;99.90
680;DHT22;322;48.846;9.230;2022-11-11T04:24:19;4.60;99.90
680;DHT22;322;48.846;9.230;2022-11-11T04:27:05;4.60;99.90
680;DHT22;322;48.846;9.230;2022-11-11T04:29:32;4.60;99.90
680;DHT22;322;48.846;9.230;2022-11-11T04:31:59;4.60;99.90
680;DHT22;322;48.846;9.230;2022-11-11T04:34:46;4.60;99.90
680;DHT22;322;48.846;9.230;2022-11-11T04:37:15;4.60;99.90
680;DHT22;322;48.846;9.230;2022-11-11T04:39:42;4.60;99.90
680;DHT22;322;48.846;9.230;2022-11-11T04:42:29;4.60;99.90
680;DHT22;322;48.846;9.230;2022-11-11T04:44:56;4.70;99.90
680;DHT22;322;48.846;9.230;2022-11-11T04:47:52;4.60;99.90
680;DHT22;322;48.846;9.230;2022-11-11T04:50:19;4.60;99.90
680;DHT22;322;48.846;9.230;2022-11-11T04:52:47;4.60;99.90
680;DHT22;322;48.846;9.230;2022-11-11T04:55:14;4.60;99.90
680;DHT22;322;48.846;9.230;2022-11-11T04:57:59;4.60;99.90
680;DHT22;322;48.846;9.230;2022-11-11T05:00:26;4.60;99.90
680;DHT22;322;48.846;9.230;2022-11-11T05:02:53;4.60;99.90
680;DHT22;322;48.846;9.230;2022-11-11T05:05:38;4.60;99.90
680;DHT22;322;48.846;9.230;2022-11-11T05:08:20;4.60;99.90
680;DHT22;322;48.846;9.230;2022-11-11T05:11:04;4.60;99.90
680;DHT22;322;48.846;9.230;2022-11-11T05:13:31;4.60;99.90
680;DHT22;322;48.846;9.230;2022-11-11T05:16:18;4.60;99.90
680;DHT22;322;48.846;9.230;2022-11-11T05:19:03;4.50;99.90
680;DHT22;322;48.846;9.230;2022-11-11T05:21:47;4.50;99.90
680;DHT22;322;48.846;9.230;2022-11-11T05:24:16;4.40;99.90
680;DHT22;322;48.846;9.230;2022-11-11T05:27:00;4.50;99.90
680;DHT22;322;48.846;9.230;2022-11-11T05:29:27;4.50;99.90
680;DHT22;322;48.846;9.230;2022-11-11T05:31:54;4.50;99.90
680;DHT22;322;48.846;9.230;2022-11-11T05:34:21;4.50;99.90
680;DHT22;322;48.846;9.230;2022-11-11T05:36:48;4.50;99.90
680;DHT22;322;48.846;9.230;2022-11-11T05:39:16;4.60;99.90
680;DHT22;322;48.846;9.230;2022-11-11T05:41:42;4.60;99.90
680;DHT22;322;48.846;9.230;2022-11-11T05:44:09;4.70;99.90
680;DHT22;322;48.846;9.230;2022-11-11T05:46:36;4.80;99.90
680;DHT22;322;48.846;9.230;2022-11-11T05:49:03;4.70;99.90
680;DHT22;322;48.846;9.230;2022-11-11T05:51:42;4.70;99.90
680;DHT22;322;48.846;9.230;2022-11-11T05:54:09;4.70;99.90
680;DHT22;322;48.846;9.230;2022-11-11T05:56:37;4.70;99.90
680;DHT22;322;48.846;9.230;2022-11-11T05:59:04;4.70;99.90
680;DHT22;322;48.846;9.230;2022-11-11T06:01:31;4.70;99.90
680;DHT22;322;48.846;9.230;2022-11-11T06:03:58;4.80;99.90
680;DHT22;322;48.846;9.230;2022-11-11T06:06:25;4.80;99.90
680;DHT22;322;48.846;9.230;2022-11-11T06:08:52;4.80;99.90
680;DHT22;322;48.846;9.230;2022-11-11T06:11:19;4.80;99.90
680;DHT22;322;48.846;9.230;2022-11-11T06:13:47;4.80;99.90
680;DHT22;322;48.846;9.230;2022-11-11T06:16:14;4.80;99.90
680;DHT22;322;48.846;9.230;2022-11-11T06:18:41;4.80;99.90
680;DHT22;322;48.846;9.230;2022-11-11T06:21:08;4.80;99.90
680;DHT22;322;48.846;9.230;2022-11-11T06:23:35;4.80;99.90
680;DHT22;322;48.846;9.230;2022-11-11T06:26:02;4.80;99.90
680;DHT22;322;48.846;9.230;2022-11-11T06:28:38;4.80;99.90
680;DHT22;322;48.846;9.230;2022-11-11T06:31:07;4.70;99.90
680;DHT22;322;48.846;9.230;2022-11-11T06:33:34;4.70;99.90
680;DHT22;322;48.846;9.230;2022-11-11T06:36:02;4.70;99.90
680;DHT22;322;48.846;9.230;2022-11-11T06:38:29;4.80;99.90
680;DHT22;322;48.846;9.230;2022-11-11T06:40:56;4.80;99.90
680;DHT22;322;48.846;9.230;2022-11-11T06:43:23;4.70;99.90
680;DHT22;322;48.846;9.230;2022-11-11T06:45:51;4.70;99.90
680;DHT22;322;48.846;9.230;2022-11-11T06:48:20;4.80;99.90
680;DHT22;322;48.846;9.230;2022-11-11T06:50:47;4.80;99.90
680;DHT22;322;48.846;9.230;2022-11-11T06:53:16;4.80;99.90
680;DHT22;322;48.846;9.230;2022-11-11T06:55:43;4.80;99.90
680;DHT22;322;48.846;9.230;2022-11-11T06:58:11;4.90;99.90
680;DHT22;322;48.846;9.230;2022-11-11T07:00:38;4.90;99.90
680;DHT22;322;48.846;9.230;2022-11-11T07:03:06;4.90;99.90
680;DHT22;322;48.846;9.230;2022-11-11T07:05:34;5.00;99.90
680;DHT22;322;48.846;9.230;2022-11-11T07:08:01;5.00;99.90
680;DHT22;322;48.846;9.230;2022-11-11T07:10:29;5.10;99.90
680;DHT22;322;48.846;9.230;2022-11-11T07:12:56;5.10;99.90
680;DHT22;322;48.846;9.230;2022-11-11T07:15:23;5.20;99.90
680;DHT22;322;48.846;9.230;2022-11-11T07:17:50;5.30;99.90
680;DHT22;322;48.846;9.230;2022-11-11T07:20:17;5.30;99.90
680;DHT22;322;48.846;9.230;2022-11-11T07:22:45;5.30;99.90
680;DHT22;322;48.846;9.230;2022-11-11T07:25:12;5.40;99.90
680;DHT22;322;48.846;9.230;2022-11-11T07:27:39;5.40;99.90
680;DHT22;322;48.846;9.230;2022-11-11T07:30:07;5.50;99.90
680;DHT22;322;48.846;9.230;2022-11-11T07:32:34;5.60;99.90
680;DHT22;322;48.846;9.230;2022-11-11T07:35:02;5.60;99.90
680;DHT22;322;48.846;9.230;2022-11-11T07:37:29;5.70;99.90
680;DHT22;322;48.846;9.230;2022-11-11T07:39:58;5.80;99.90
680;DHT22;322;48.846;9.230;2022-11-11T07:42:24;5.80;99.90
680;DHT22;322;48.846;9.230;2022-11-11T07:44:51;6.00;99.90
680;DHT22;322;48.846;9.230;2022-11-11T07:47:18;6.10;99.90
680;DHT22;322;48.846;9.230;2022-11-11T07:49:45;6.20;99.90
680;DHT22;322;48.846;9.230;2022-11-11T07:52:11;6.30;99.90
680;DHT22;322;48.846;9.230;2022-11-11T07:54:38;6.30;99.90
680;DHT22;322;48.846;9.230;2022-11-11T07:57:06;6.30;99.90
680;DHT22;322;48.846;9.230;2022-11-11T07:59:33;6.40;99.90
680;DHT22;322;48.846;9.230;2022-11-11T08:02:00;6.50;99.90
680;DHT22;322;48.846;9.230;2022-11-11T08:04:26;6.60;99.90
680;DHT22;322;48.846;9.230;2022-11-11T08:06:53;6.70;99.90
680;DHT22;322;48.846;9.230;2022-11-11T08:09:20;6.60;99.90
680;DHT22;322;48.846;9.230;2022-11-11T08:11:47;6.70;99.90
680;DHT22;322;48.846;9.230;2022-11-11T08:14:32;6.80;99.90
680;DHT22;322;48.846;9.230;2022-11-11T08:16:59;6.90;99.90
680;DHT22;322;48.846;9.230;2022-11-11T08:19:26;6.90;99.90
680;DHT22;322;48.846;9.230;2022-11-11T08:21:53;6.90;99.90
680;DHT22;322;48.846;9.230;2022-11-11T08:24:20;6.90;99.90
680;DHT22;322;48.846;9.230;2022-11-11T08:26:48;6.90;99.90
680;DHT22;322;48.846;9.230;2022-11-11T08:29:15;6.90;99.90
680;DHT22;322;48.846;9.230;2022-11-11T08:31:43;7.00;99.90
680;DHT22;322;48.846;9.230;2022-11-11T08:34:10;7.00;99.90
680;DHT22;322;48.846;9.230;2022-11-11T08:36:36;7.00;99.90
680;DHT22;322;48.846;9.230;2022-11-11T08:39:04;7.00;99.90
680;DHT22;322;48.846;9.230;2022-11-11T08:41:30;7.00;99.90
680;DHT22;322;48.846;9.230;2022-11-11T08:43:57;7.00;99.90
680;DHT22;322;48.846;9.230;2022-11-11T08:46:25;7.00;99.90
680;DHT22;322;48.846;9.230;2022-11-11T08:48:54;7.10;99.90
680;DHT22;322;48.846;9.230;2022-11-11T08:51:20;7.20;99.90
680;DHT22;322;48.846;9.230;2022-11-11T08:53:47;7.20;99.90
680;DHT22;322;48.846;9.230;2022-11-11T08:56:14;7.30;99.90
680;DHT22;322;48.846;9.230;2022-11-11T08:58:41;7.40;99.90
680;DHT22;322;48.846;9.230;2022-11-11T09:01:10;7.50;99.90
680;DHT22;322;48.846;9.230;2022-11-11T09:03:38;7.60;99.90
680;DHT22;322;48.846;9.230;2022-11-11T09:06:09;7.80;99.90
680;DHT22;322;48.846;9.230;2022-11-11T09:08:36;8.00;99.90
680;DHT22;322;48.846;9.230;2022-11-11T09:11:03;8.10;99.90
680;DHT22;322;48.846;9.230;2022-11-11T09:13:30;8.30;99.90
680;DHT22;322;48.846;9.230;2022-11-11T09:15:57;8.50;99.90
680;DHT22;322;48.846;9.230;2022-11-11T09:18:24;8.70;99.90
680;DHT22;322;48.846;9.230;2022-11-11T09:20:51;8.80;99.90
680;DHT22;322;48.846;9.230;2022-11-11T09:23:19;9.00;99.90
680;DHT22;322;48.846;9.230;2022-11-11T09:25:46;9.20;99.90
680;DHT22;322;48.846;9.230;2022-11-11T09:28:12;9.40;99.90
680;DHT22;322;48.846;9.230;2022-11-11T09:30:39;9.50;99.90
680;DHT22;322;48.846;9.230;2022-11-11T09:33:06;9.80;99.90
680;DHT22;322;48.846;9.230;2022-11-11T09:35:34;10.20;99.90
680;DHT22;322;48.846;9.230;2022-11-11T09:38:01;10.50;99.90
680;DHT22;322;48.846;9.230;2022-11-11T09:40:43;10.90;99.90
680;DHT22;322;48.846;9.230;2022-11-11T09:43:19;11.30;99.90
680;DHT22;322;48.846;9.230;2022-11-11T09:45:55;11.40;99.90
680;DHT22;322;48.846;9.230;2022-11-11T09:48:36;11.60;99.90
680;DHT22;322;48.846;9.230;2022-11-11T09:51:06;11.70;99.90
680;DHT22;322;48.846;9.230;2022-11-11T09:53:42;12.00;99.90
680;DHT22;322;48.846;9.230;2022-11-11T09:56:15;12.30;99.90
680;DHT22;322;48.846;9.230;2022-11-11T09:58:46;12.50;99.90
680;DHT22;322;48.846;9.230;2022-11-11T10:01:17;12.50;99.90
680;DHT22;322;48.846;9.230;2022-11-11T10:03:48;12.60;99.90
680;DHT22;322;48.846;9.230;2022-11-11T10:06:20;12.90;99.90
680;DHT22;322;48.846;9.230;2022-11-11T10:08:51;13.20;99.90
680;DHT22;322;48.846;9.230;2022-11-11T10:11:42;13.50;99.90
680;DHT22;322;48.846;9.230;2022-11-11T10:14:14;13.60;99.90
680;DHT22;322;48.846;9.230;2022-11-11T10:16:50;13.70;99.90
680;DHT22;322;48.846;9.230;2022-11-11T10:19:27;13.80;99.90
680;DHT22;322;48.846;9.230;2022-11-11T10:21:58;13.90;99.90
680;DHT22;322;48.846;9.230;2022-11-11T10:24:28;13.90;99.90
680;DHT22;322;48.846;9.230;2022-11-11T10:26:59;14.20;99.90
680;DHT22;322;48.846;9.230;2022-11-11T10:29:34;14.70;99.90
680;DHT22;322;48.846;9.230;2022-11-11T10:32:09;15.20;99.90
680;DHT22;322;48.846;9.230;2022-11-11T10:34:37;15.70;99.90
680;DHT22;322;48.846;9.230;2022-11-11T10:37:16;16.00;99.90
680;DHT22;322;48.846;9.230;2022-11-11T10:39:51;16.30;99.90
680;DHT22;322;48.846;9.230;2022-11-11T10:42:20;16.80;99.90
680;DHT22;322;48.846;9.230;2022-11-11T10:44:46;17.10;99.90
680;DHT22;322;48.846;9.230;2022-11-11T10:47:18;17.40;99.90
680;DHT22;322;48.846;9.230;2022-11-11T10:49:52;17.20;99.90
680;DHT22;322;48.846;9.230;2022-11-11T10:52:23;16.90;99.90
680;DHT22;322;48.846;9.230;2022-11-11T10:54:54;16.40;99.90
680;DHT22;322;48.846;9.230;2022-11-11T10:57:30;16.10;99.90
680;DHT22;322;48.846;9.230;2022-11-11T11:00:03;15.80;99.90
680;DHT22;322;48.846;9.230;2022-11-11T11:02:36;15.50;99.90
680;DHT22;322;48.846;9.230;2022-11-11T11:05:09;15.40;99.90
680;DHT22;322;48.846;9.230;2022-11-11T11:07:42;15.30;99.90
680;DHT22;322;48.846;9.230;2022-11-11T11:10:13;15.20;99.90
680;DHT22;322;48.846;9.230;2022-11-11T11:12:46;15.00;99.90
680;DHT22;322;48.846;9.230;2022-11-11T11:15:17;14.90;99.90
680;DHT22;322;48.846;9.230;2022-11-11T11:17:50;14.70;99.90
680;DHT22;322;48.846;9.230;2022-11-11T11:20:19;14.60;99.90
680;DHT22;322;48.846;9.230;2022-11-11T11:22:49;14.50;99.90
680;DHT22;322;48.846;9.230;2022-11-11T11:25:18;14.50;99.90
680;DHT22;322;48.846;9.230;2022-11-11T11:27:49;14.30;99.90
680;DHT22;322;48.846;9.230;2022-11-11T11:30:18;14.30;99.90
680;DHT22;322;48.846;9.230;2022-11-11T11:32:56;14.20;99.90
680;DHT22;322;48.846;9.230;2022-11-11T11:35:34;14.10;99.90
680;DHT22;322;48.846;9.230;2022-11-11T11:38:02;14.00;99.90
680;DHT22;322;48.846;9.230;2022-11-11T11:40:44;13.90;99.90
680;DHT22;322;48.846;9.230;2022-11-11T11:43:34;13.80;99.90
680;DHT22;322;48.846;9.230;2022-11-11T11:46:04;13.70;99.90
680;DHT22;322;48.846;9.230;2022-11-11T11:48:55;13.60;99.90
680;DHT22;322;48.846;9.230;2022-11-11T11:51:32;13.50;99.90
680;DHT22;322;48.846;9.230;2022-11-11T11:54:37;13.50;99.90
680;DHT22;322;48.846;9.230;2022-11-11T11:57:19;13.40;99.90
680;DHT22;322;48.846;9.230;2022-11-11T11:59:54;13.40;99.90
680;DHT22;322;48.846;9.230;2022-11-11T12:05:23;13.70;99.90
680;DHT22;322;48.846;9.230;2022-11-11T12:08:02;13.80;99.90
680;DHT22;322;48.846;9.230;2022-11-11T12:10:41;14.00;99.90
680;DHT22;322;48.846;9.230;2022-11-11T12:13:21;14.10;99.90
680;DHT22;322;48.846;9.230;2022-11-11T12:15:56;14.30;99.90
680;DHT22;322;48.846;9.230;2022-11-11T12:18:39;14.40;99.90
680;DHT22;322;48.846;9.230;2022-11-11T12:21:10;14.50;99.90
680;DHT22;322;48.846;9.230;2022-11-11T12:23:56;14.50;99.90
680;DHT22;322;48.846;9.230;2022-11-11T12:26:28;14.60;99.90
680;DHT22;322;48.846;9.230;2022-11-11T12:29:19;14.70;99.90
680;DHT22;322;48.846;9.230;2022-11-11T12:32:01;14.60;99.90
680;DHT22;322;48.846;9.230;2022-11-11T12:34:51;14.60;99.90
680;DHT22;322;48.846;9.230;2022-11-11T12:37:25;14.50;99.90
680;DHT22;322;48.846;9.230;2022-11-11T12:40:06;14.50;99.90
680;DHT22;322;48.846;9.230;2022-11-11T12:42:52;14.50;99.90
680;DHT22;322;48.846;9.230;2022-11-11T12:45:26;14.50;99.90
680;DHT22;322;48.846;9.230;2022-11-11T12:48:04;14.50;99.90
680;DHT22;322;48.846;9.230;2022-11-11T12:50:42;14.50;99.90
680;DHT22;322;48.846;9.230;2022-11-11T12:53:18;14.60;99.90
680;DHT22;322;48.846;9.230;2022-11-11T12:55:53;14.60;99.90
680;DHT22;322;48.846;9.230;2022-11-11T12:58:29;14.60;99.90
680;DHT22;322;48.846;9.230;2022-11-11T13:01:10;14.70;99.90
680;DHT22;322;48.846;9.230;2022-11-11T13:03:55;14.70;99.90
680;DHT22;322;48.846;9.230;2022-11-11T13:06:48;14.70;99.90
680;DHT22;322;48.846;9.230;2022-11-11T13:12:13;14.70;99.90
680;DHT22;322;48.846;9.230;2022-11-11T13:14:53;14.80;99.90
680;DHT22;322;48.846;9.230;2022-11-11T13:17:21;14.90;99.90
680;DHT22;322;48.846;9.230;2022-11-11T13:19:53;15.00;99.90
680;DHT22;322;48.846;9.230;2022-11-11T13:22:23;15.10;99.90
680;DHT22;322;48.846;9.230;2022-11-11T13:24:51;15.20;99.90
680;DHT22;322;48.846;9.230;2022-11-11T13:27:25;15.30;99.90
680;DHT22;322;48.846;9.230;2022-11-11T13:33:01;15.40;99.90
680;DHT22;322;48.846;9.230;2022-11-11T13:35:33;15.50;99.90
680;DHT22;322;48.846;9.230;2022-11-11T13:38:01;15.50;99.90
680;DHT22;322;48.846;9.230;2022-11-11T13:40:35;15.50;99.90
680;DHT22;322;48.846;9.230;2022-11-11T13:43:03;15.50;99.90
680;DHT22;322;48.846;9.230;2022-11-11T13:45:35;15.50;99.90
680;DHT22;322;48.846;9.230;2022-11-11T13:48:04;15.40;99.90
680;DHT22;322;48.846;9.230;2022-11-11T13:50:35;15.40;99.90
680;DHT22;322;48.846;9.230;2022-11-11T13:53:04;15.50;99.90
680;DHT22;322;48.846;9.230;2022-11-11T13:55:35;15.50;99.90
680;DHT22;322;48.846;9.230;2022-11-11T13:58:03;15.40;99.90
680;DHT22;322;48.846;9.230;2022-11-11T14:00:33;15.40;99.90
680;DHT22;322;48.846;9.230;2022-11-11T14:03:29;15.50;99.90
680;DHT22;322;48.846;9.230;2022-11-11T14:06:33;15.30;99.90
680;DHT22;322;48.846;9.230;2022-11-11T14:09:01;15.30;99.90
680;DHT22;322;48.846;9.230;2022-11-11T14:11:31;15.30;99.90
680;DHT22;322;48.846;9.230;2022-11-11T14:17:04;15.20;99.90
680;DHT22;322;48.846;9.230;2022-11-11T14:19:38;15.10;99.90
680;DHT22;322;48.846;9.230;2022-11-11T14:22:29;15.00;99.90
680;DHT22;322;48.846;9.230;2022-11-11T14:25:10;14.90;99.90
680;DHT22;322;48.846;9.230;2022-11-11T14:27:43;14.80;99.90
680;DHT22;322;48.846;9.230;2022-11-11T14:30:36;14.70;99.90
680;DHT22;322;48.846;9.230;2022-11-11T14:33:09;14.60;99.90
680;DHT22;322;48.846;9.230;2022-11-11T14:35:44;14.50;99.90
680;DHT22;322;48.846;9.230;2022-11-11T14:38:34;14.50;99.90
680;DHT22;322;48.846;9.230;2022-11-11T14:41:37;14.50;99.90
680;DHT22;322;48.846;9.230;2022-11-11T14:44:38;14.40;99.90
680;DHT22;322;48.846;9.230;2022-11-11T14:47:30;14.40;99.90
680;DHT22;322;48.846;9.230;2022-11-11T14:49:57;14.30;99.90
680;DHT22;322;48.846;9.230;2022-11-11T14:52:29;14.20;99.90
680;DHT22;322;48.846;9.230;2022-11-11T14:55:10;14.10;99.90
680;DHT22;322;48.846;9.230;2022-11-11T14:57:39;13.90;99.90
680;DHT22;322;48.846;9.230;2022-11-11T15:00:12;13.80;99.90
680;DHT22;322;48.846;9.230;2022-11-11T15:02:46;13.70;99.90
680;DHT22;322;48.846;9.230;2022-11-11T15:05:19;13.60;99.90
680;DHT22;322;48.846;9.230;2022-11-11T15:07:59;13.50;99.90
680;DHT22;322;48.846;9.230;2022-11-11T15:10:38;13.40;99.90
680;DHT22;322;48.846;9.230;2022-11-11T15:13:28;13.20;99.90
680;DHT22;322;48.846;9.230;2022-11-11T15:16:07;13.10;99.90
680;DHT22;322;48.846;9.230;2022-11-11T15:18:51;13.00;99.90
680;DHT22;322;48.846;9.230;2022-11-11T15:21:26;12.80;99.90
680;DHT22;322;48.846;9.230;2022-11-11T15:24:04;12.70;99.90
680;DHT22;322;48.846;9.230;2022-11-11T15:26:39;12.60;99.90
680;DHT22;322;48.846;9.230;2022-11-11T15:29:42;12.50;99.90
680;DHT22;322;48.846;9.230;2022-11-11T15:32:20;12.30;99.90
680;DHT22;322;48.846;9.230;2022-11-11T15:34:54;12.30;99.90
680;DHT22;322;48.846;9.230;2022-11-11T15:37:25;12.10;99.90
680;DHT22;322;48.846;9.230;2022-11-11T15:39:54;12.00;99.90
680;DHT22;322;48.846;9.230;2022-11-11T15:42:28;11.80;99.90
680;DHT22;322;48.846;9.230;2022-11-11T15:44:57;11.70;99.90
680;DHT22;322;48.846;9.230;2022-11-11T15:47:25;11.60;99.90
680;DHT22;322;48.846;9.230;2022-11-11T15:49:53;11.50;99.90
680;DHT22;322;48.846;9.230;2022-11-11T15:52:25;11.40;99.90
680;DHT22;322;48.846;9.230;2022-11-11T15:54:53;11.20;99.90
680;DHT22;322;48.846;9.230;2022-11-11T15:57:25;11.00;99.90
680;DHT22;322;48.846;9.230;2022-11-11T15:59:52;10.80;99.90
680;DHT22;322;48.846;9.230;2022-11-11T16:02:21;10.80;99.90
680;DHT22;322;48.846;9.230;2022-11-11T16:04:51;10.60;99.90
680;DHT22;322;48.846;9.230;2022-11-11T16:07:21;10.60;99.90
680;DHT22;322;48.846;9.230;2022-11-11T16:09:49;10.50;99.90
680;DHT22;322;48.846;9.230;2022-11-11T16:12:19;10.40;99.90
680;DHT22;322;48.846;9.230;2022-11-11T16:14:50;10.30;99.90
680;DHT22;322;48.846;9.230;2022-11-11T16:17:19;10.30;99.90
680;DHT22;322;48.846;9.230;2022-11-11T16:19:48;10.20;99.90
680;DHT22;322;48.846;9.230;2022-11-11T16:22:19;10.00;99.90
680;DHT22;322;48.846;9.230;2022-11-11T16:24:47;9.80;99.90
680;DHT22;322;48.846;9.230;2022-11-11T16:27:17;9.70;99.90
680;DHT22;322;48.846;9.230;2022-11-11T16:29:45;9.60;99.90
680;DHT22;322;48.846;9.230;2022-11-11T16:32:33;9.60;99.90
680;DHT22;322;48.846;9.230;2022-11-11T16:35:00;9.40;99.90
680;DHT22;322;48.846;9.230;2022-11-11T16:37:27;9.30;99.90
680;DHT22;322;48.846;9.230;2022-11-11T16:39:55;9.30;99.90
680;DHT22;322;48.846;9.230;2022-11-11T16:42:23;9.30;99.90
680;DHT22;322;48.846;9.230;2022-11-11T16:44:55;9.30;99.90
680;DHT22;322;48.846;9.230;2022-11-11T16:47:43;9.30;99.90
680;DHT22;322;48.846;9.230;2022-11-11T16:50:14;9.20;99.90
680;DHT22;322;48.846;9.230;2022-11-11T16:52:45;9.10;99.90
680;DHT22;322;48.846;9.230;2022-11-11T16:55:19;9.00;99.90
680;DHT22;322;48.846;9.230;2022-11-11T16:57:48;8.90;99.90
680;DHT22;322;48.846;9.230;2022-11-11T17:00:17;8.80;99.90
680;DHT22;322;48.846;9.230;2022-11-11T17:02:46;8.80;99.90
680;DHT22;322;48.846;9.230;2022-11-11T17:05:14;8.70;99.90
680;DHT22;322;48.846;9.230;2022-11-11T17:07:41;8.60;99.90
680;DHT22;322;48.846;9.230;2022-11-11T17:10:17;8.50;99.90
680;DHT22;322;48.846;9.230;2022-11-11T17:12:44;8.40;99.90
680;DHT22;322;48.846;9.230;2022-11-11T17:15:13;8.40;99.90
680;DHT22;322;48.846;9.230;2022-11-11T17:17:42;8.40;99.90
680;DHT22;322;48.846;9.230;2022-11-11T17:20:13;8.40;99.90
680;DHT22;322;48.846;9.230;2022-11-11T17:22:48;8.40;99.90
680;DHT22;322;48.846;9.230;2022-11-11T17:25:15;8.50;99.90
680;DHT22;322;48.846;9.230;2022-11-11T17:27:42;8.40;99.90